createdAt,value
2019-02-26T00:01:14.440Z,9.11
2019-02-26T00:04:36.905Z,9.25
2019-02-26T00:08:02.440Z,9.15
2019-02-26T00:11:29.011Z,9.03
2019-02-26T00:14:54.525Z,9.10
2019-02-26T00:18:19.046Z,8.95
2019-02-26T00:21:43.459Z,8.99
2019-02-26T00:25:08.487Z,9.10
2019-02-26T00:28:36.310Z,8.99
2019-02-26T00:31:59.528Z,9.19
2019-02-26T00:35:23.468Z,9.10
2019-02-26T00:38:47.794Z,8.82
2019-02-26T00:42:11.021Z,8.68
2019-02-26T00:45:36.261Z,8.83
2019-02-26T00:49:00.903Z,8.70
2019-02-26T00:52:24.951Z,8.70
2019-02-26T00:55:48.052Z,8.74
2019-02-26T00:59:12.330Z,8.62
2019-02-26T01:02:35.507Z,8.67
2019-02-26T01:05:59.310Z,8.50
2019-02-26T01:09:25.187Z,8.65
2019-02-26T01:12:48.978Z,8.70
2019-02-26T01:16:12.165Z,8.39
2019-02-26T01:19:36.901Z,8.41
2019-02-26T01:23:00.672Z,8.22
2019-02-26T01:26:27.299Z,8.16
2019-02-26T01:29:51.096Z,8.14
2019-02-26T01:33:14.213Z,8.28
2019-02-26T01:36:40.250Z,8.10
2019-02-26T01:40:07.387Z,8.18
2019-02-26T01:43:29.885Z,8.28
2019-02-26T01:46:53.789Z,8.12
2019-02-26T01:50:18.173Z,8.12
2019-02-26T01:53:42.336Z,8.18
2019-02-26T01:57:08.613Z,8.10
2019-02-26T02:00:31.874Z,8.06
2019-02-26T02:03:56.222Z,7.87
2019-02-26T02:07:21.382Z,7.74
2019-02-26T02:10:44.860Z,7.61
2019-02-26T02:14:08.627Z,7.72
2019-02-26T02:17:33.829Z,7.84
2019-02-26T02:20:58.309Z,8.33
2019-02-26T02:24:22.865Z,8.17
2019-02-26T02:27:49.684Z,7.99
2019-02-26T02:31:11.980Z,7.94
2019-02-26T02:34:36.555Z,7.93
2019-02-26T02:38:02.806Z,8.08
2019-02-26T02:41:26.037Z,8.03
2019-02-26T02:44:50.314Z,7.83
2019-02-26T02:48:14.365Z,7.59
2019-02-26T02:51:39.522Z,7.64
2019-02-26T02:55:04.558Z,7.58
2019-02-26T02:58:28.441Z,7.51
2019-02-26T03:01:52.753Z,7.50
2019-02-26T03:05:16.834Z,7.49
2019-02-26T03:08:42.216Z,7.34
2019-02-26T03:12:05.447Z,7.47
2019-02-26T03:15:30.040Z,7.89
2019-02-26T03:18:53.732Z,7.82
2019-02-26T03:22:18.897Z,7.92
2019-02-26T03:25:44.440Z,7.69
2019-02-26T03:29:07.300Z,7.59
2019-02-26T03:32:30.473Z,7.35
2019-02-26T03:35:53.774Z,7.31
2019-02-26T03:39:17.209Z,7.25
2019-02-26T03:42:41.591Z,7.73
2019-02-26T03:46:05.649Z,7.91
2019-02-26T03:49:28.931Z,7.60
2019-02-26T03:52:52.127Z,7.28
2019-02-26T03:56:18.307Z,7.17
2019-02-26T03:59:41.360Z,7.11
2019-02-26T04:03:05.926Z,7.07
2019-02-26T04:06:30.672Z,7.09
2019-02-26T04:09:55.850Z,6.92
2019-02-26T04:13:20.307Z,6.92
2019-02-26T04:16:43.775Z,6.98
2019-02-26T04:20:08.552Z,6.84
2019-02-26T04:23:33.173Z,6.86
2019-02-26T04:27:51.707Z,6.67
2019-02-26T04:31:44.545Z,6.60
2019-02-26T04:35:36.288Z,6.67
2019-02-26T04:40:05.360Z,6.63
2019-02-26T04:44:35.076Z,6.63
2019-02-26T04:48:00.549Z,6.56
2019-02-26T04:51:23.389Z,6.46
2019-02-26T04:54:46.509Z,6.48
2019-02-26T04:58:12.234Z,6.54
2019-02-26T05:01:34.951Z,6.47
2019-02-26T05:04:58.196Z,6.34
2019-02-26T05:08:21.574Z,6.41
2019-02-26T05:11:44.970Z,6.28
2019-02-26T05:15:11.630Z,6.21
2019-02-26T05:18:34.568Z,6.31
2019-02-26T05:21:59.370Z,6.35
2019-02-26T05:25:22.986Z,6.30
2019-02-26T05:28:48.946Z,6.29
2019-02-26T05:32:11.744Z,6.22
2019-02-26T05:35:37.337Z,6.21
2019-02-26T05:39:02.285Z,6.15
2019-02-26T05:42:27.480Z,5.99
2019-02-26T05:45:53.497Z,5.97
2019-02-26T05:49:19.117Z,5.87
2019-02-26T05:52:40.855Z,5.94
2019-02-26T05:56:04.558Z,5.93
2019-02-26T05:59:27.746Z,5.88
2019-02-26T06:02:51.124Z,5.87
2019-02-26T06:06:14.222Z,5.81
2019-02-26T06:09:37.695Z,5.89
2019-02-26T06:13:02.206Z,5.76
2019-02-26T06:16:27.121Z,5.72
2019-02-26T06:19:51.110Z,5.86
2019-02-26T06:23:14.215Z,5.87
2019-02-26T06:26:40.649Z,5.75
2019-02-26T06:30:07.311Z,5.74
2019-02-26T06:33:32.044Z,5.68
2019-02-26T06:37:17.790Z,5.63
2019-02-26T06:40:41.907Z,6.36
2019-02-26T06:44:46.426Z,6.40
2019-02-26T06:48:12.563Z,5.99
2019-02-26T06:51:34.515Z,5.92
2019-02-26T06:55:00.070Z,5.96
2019-02-26T06:58:25.271Z,5.91
2019-02-26T07:01:48.355Z,5.95
2019-02-26T07:05:12.455Z,6.44
2019-02-26T07:08:35.943Z,6.09
2019-02-26T07:11:59.409Z,6.24
2019-02-26T07:15:22.578Z,6.26
2019-02-26T07:18:45.716Z,6.23
2019-02-26T07:22:11.139Z,6.23
2019-02-26T07:25:36.260Z,6.34
2019-02-26T07:28:58.777Z,6.43
2019-02-26T07:32:22.756Z,6.53
2019-02-26T07:35:46.873Z,6.50
2019-02-26T07:39:13.034Z,6.85
2019-02-26T07:42:37.278Z,6.99
2019-02-26T07:46:01.491Z,7.22
2019-02-26T07:49:24.606Z,7.29
2019-02-26T07:52:49.627Z,7.57
2019-02-26T07:56:15.840Z,7.88
2019-02-26T07:59:39.829Z,7.95
2019-02-26T08:03:07.147Z,8.09
2019-02-26T08:06:31.652Z,8.39
2019-02-26T08:09:55.307Z,8.66
2019-02-26T08:13:18.746Z,8.89
2019-02-26T08:16:42.140Z,9.11
2019-02-26T08:20:08.140Z,9.47
2019-02-26T08:23:30.647Z,9.64
2019-02-26T08:26:53.774Z,9.85
2019-02-26T08:30:20.629Z,10.17
2019-02-26T08:33:42.695Z,10.33
2019-02-26T08:37:05.832Z,10.52
2019-02-26T08:40:29.133Z,10.63
2019-02-26T08:43:54.555Z,10.80
2019-02-26T08:47:19.259Z,10.94
2019-02-26T08:50:44.063Z,11.25
2019-02-26T08:54:08.251Z,11.33
2019-02-26T08:57:31.531Z,11.58
2019-02-26T09:00:54.663Z,11.73
2019-02-26T09:04:19.695Z,11.89
2019-02-26T09:07:45.595Z,12.20
2019-02-26T09:11:10.700Z,12.47
2019-02-26T09:14:37.265Z,12.53
2019-02-26T09:17:58.819Z,12.69
2019-02-26T09:21:22.877Z,12.74
2019-02-26T09:24:46.836Z,13.08
2019-02-26T09:28:11.190Z,13.26
2019-02-26T09:31:34.301Z,13.36
2019-02-26T09:34:59.153Z,13.72
2019-02-26T09:38:25.462Z,14.03
2019-02-26T09:41:48.858Z,14.37
2019-02-26T09:45:15.895Z,14.75
2019-02-26T09:48:41.092Z,14.88
2019-02-26T09:52:06.532Z,15.88
2019-02-26T09:55:29.941Z,16.85
2019-02-26T09:58:53.060Z,18.38
2019-02-26T10:02:17.362Z,21.11
2019-02-26T10:05:41.110Z,23.52
2019-02-26T10:09:08.388Z,25.15
2019-02-26T10:12:32.254Z,24.88
2019-02-26T10:15:58.627Z,26.54
2019-02-26T10:19:21.392Z,27.79
2019-02-26T10:22:44.581Z,27.14
2019-02-26T10:26:10.453Z,28.11
2019-02-26T10:29:36.677Z,28.02
2019-02-26T10:33:01.949Z,27.51
2019-02-26T10:36:24.376Z,28.13
2019-02-26T10:39:49.716Z,29.16
2019-02-26T10:43:12.590Z,30.44
2019-02-26T10:46:37.094Z,30.16
2019-02-26T10:50:00.721Z,31.76
2019-02-26T10:53:23.824Z,31.38
2019-02-26T10:56:46.945Z,31.31
2019-02-26T11:00:25.239Z,30.76
2019-02-26T11:03:49.259Z,30.57
2019-02-26T11:07:14.253Z,30.98
2019-02-26T11:10:41.405Z,31.19
2019-02-26T11:14:05.149Z,31.38
2019-02-26T11:17:28.923Z,31.30
2019-02-26T11:20:56.174Z,31.75
2019-02-26T11:24:18.298Z,32.47
2019-02-26T11:27:43.484Z,32.85
2019-02-26T11:31:08.867Z,33.90
2019-02-26T11:34:33.403Z,34.42
2019-02-26T11:37:58.063Z,34.47
2019-02-26T11:41:21.529Z,33.00
2019-02-26T11:44:44.739Z,33.94
2019-02-26T11:48:08.719Z,34.27
2019-02-26T11:51:37.019Z,35.57
2019-02-26T11:54:58.822Z,33.66
2019-02-26T11:58:24.190Z,35.49
2019-02-26T12:01:47.365Z,34.56
2019-02-26T12:05:10.808Z,35.21
2019-02-26T12:08:37.045Z,35.08
2019-02-26T12:12:00.896Z,35.56
2019-02-26T12:15:27.168Z,34.39
2019-02-26T12:18:50.440Z,33.48
2019-02-26T12:22:13.654Z,33.20
2019-02-26T12:25:36.822Z,31.54
2019-02-26T12:29:02.128Z,33.21
2019-02-26T12:32:27.499Z,34.50
2019-02-26T12:35:51.192Z,33.79
2019-02-26T12:39:16.168Z,35.25
2019-02-26T12:42:39.637Z,36.11
2019-02-26T12:46:04.709Z,36.79
2019-02-26T12:49:29.412Z,38.53
2019-02-26T12:52:53.897Z,39.08
2019-02-26T12:56:17.927Z,37.76
2019-02-26T12:59:41.149Z,38.80
2019-02-26T13:03:05.668Z,40.45
2019-02-26T13:06:29.791Z,39.70
2019-02-26T13:09:55.966Z,41.11
2019-02-26T13:13:18.023Z,41.29
2019-02-26T13:16:42.426Z,40.28
2019-02-26T13:20:11.192Z,40.49
2019-02-26T13:23:34.559Z,42.19
2019-02-26T13:26:59.698Z,42.12
2019-02-26T13:30:23.248Z,41.40
2019-02-26T13:33:46.840Z,40.86
2019-02-26T13:37:10.019Z,41.11
2019-02-26T13:40:38.544Z,41.46
2019-02-26T13:43:58.359Z,41.11
2019-02-26T13:47:21.498Z,40.66
2019-02-26T13:50:44.974Z,40.97
2019-02-26T13:54:08.076Z,41.79
2019-02-26T13:57:31.364Z,41.15
2019-02-26T14:00:54.573Z,42.51
2019-02-26T14:04:17.994Z,43.17
2019-02-26T14:07:41.486Z,41.55
2019-02-26T14:11:04.719Z,40.03
2019-02-26T14:14:27.900Z,40.71
2019-02-26T14:17:51.020Z,39.88
2019-02-26T14:21:14.167Z,40.62
2019-02-26T14:24:37.551Z,41.35
2019-02-26T14:28:00.663Z,41.35
2019-02-26T14:31:23.798Z,41.51
2019-02-26T14:34:47.206Z,41.91
2019-02-26T14:38:10.309Z,40.50
2019-02-26T14:41:33.512Z,39.51
2019-02-26T14:44:56.624Z,38.28
2019-02-26T14:48:19.819Z,38.72
2019-02-26T14:51:42.953Z,37.27
2019-02-26T14:55:06.769Z,37.57
2019-02-26T14:58:29.992Z,36.79
2019-02-26T15:01:53.099Z,35.48
2019-02-26T15:05:16.791Z,36.71
2019-02-26T15:08:41.282Z,35.79
2019-02-26T15:12:04.497Z,34.04
2019-02-26T15:15:28.723Z,34.58
2019-02-26T15:18:52.158Z,35.38
2019-02-26T15:22:15.312Z,34.47
2019-02-26T15:25:38.419Z,33.77
2019-02-26T15:29:01.722Z,35.13
2019-02-26T15:32:24.770Z,33.98
2019-02-26T15:35:47.873Z,33.79
2019-02-26T15:39:11.014Z,34.33
2019-02-26T15:42:34.227Z,34.78
2019-02-26T15:45:57.787Z,36.22
2019-02-26T15:49:22.331Z,36.56
2019-02-26T15:52:46.119Z,36.14
2019-02-26T15:56:09.613Z,36.99
2019-02-26T15:59:35.317Z,37.72
2019-02-26T16:02:59.297Z,37.16
2019-02-26T16:06:23.368Z,36.79
2019-02-26T16:09:46.496Z,36.75
2019-02-26T16:13:09.832Z,36.68
2019-02-26T16:16:32.948Z,35.91
2019-02-26T16:19:56.172Z,35.19
2019-02-26T16:23:19.390Z,33.07
2019-02-26T16:26:42.485Z,30.67
2019-02-26T16:30:11.367Z,29.05
2019-02-26T16:33:34.792Z,28.38
2019-02-26T16:36:57.917Z,27.74
2019-02-26T16:40:22.243Z,26.94
2019-02-26T16:43:47.235Z,26.08
2019-02-26T16:47:12.620Z,25.30
2019-02-26T16:50:35.787Z,24.48
2019-02-26T16:53:59.190Z,24.42
2019-02-26T16:57:22.275Z,24.01
2019-02-26T17:00:46.569Z,23.48
2019-02-26T17:04:10.644Z,23.00
2019-02-26T17:07:34.776Z,22.79
2019-02-26T17:10:58.978Z,22.18
2019-02-26T17:14:22.498Z,21.97
2019-02-26T17:17:46.619Z,21.50
2019-02-26T17:21:09.817Z,21.28
2019-02-26T17:24:33.044Z,20.88
2019-02-26T17:27:56.138Z,20.92
2019-02-26T17:31:19.355Z,20.59
2019-02-26T17:34:43.014Z,20.42
2019-02-26T17:38:06.135Z,20.28
2019-02-26T17:41:29.242Z,20.07
2019-02-26T17:44:52.379Z,19.64
2019-02-26T17:48:15.528Z,19.18
2019-02-26T17:51:38.663Z,18.74
2019-02-26T17:55:01.890Z,18.65
2019-02-26T17:58:25.263Z,18.63
2019-02-26T18:01:48.379Z,18.72
2019-02-26T18:05:11.609Z,18.53
2019-02-26T18:08:34.838Z,18.12
2019-02-26T18:11:59.735Z,18.10
2019-02-26T18:15:23.222Z,17.76
2019-02-26T18:18:46.583Z,17.39
2019-02-26T18:22:09.684Z,17.20
2019-02-26T18:25:33.556Z,17.21
2019-02-26T18:28:56.838Z,17.45
2019-02-26T18:32:19.960Z,17.54
2019-02-26T18:35:43.285Z,17.29
2019-02-26T18:39:10.394Z,16.91
2019-02-26T18:42:34.002Z,16.81
2019-02-26T18:46:00.633Z,16.86
2019-02-26T18:49:23.450Z,16.79
2019-02-26T18:52:48.298Z,16.50
2019-02-26T18:56:14.248Z,16.44
2019-02-26T18:59:37.559Z,16.03
2019-02-26T19:03:00.757Z,15.79
2019-02-26T19:06:24.704Z,15.64
2019-02-26T19:09:49.172Z,15.78
2019-02-26T19:13:12.364Z,15.87
2019-02-26T19:16:35.987Z,15.81
2019-02-26T19:19:59.386Z,15.76
2019-02-26T19:23:22.576Z,15.95
2019-02-26T19:26:47.884Z,15.80
2019-02-26T19:30:14.612Z,15.67
2019-02-26T19:33:37.844Z,15.71
2019-02-26T19:37:04.417Z,15.57
2019-02-26T19:40:38.784Z,15.59
2019-02-26T19:44:04.278Z,15.60
2019-02-26T19:47:31.173Z,15.68
2019-02-26T19:50:54.478Z,15.47
2019-02-26T19:54:18.223Z,14.96
2019-02-26T19:57:41.665Z,14.66
2019-02-26T20:01:05.733Z,14.26
2019-02-26T20:04:31.599Z,14.07
2019-02-26T20:07:54.957Z,14.02
2019-02-26T20:11:22.633Z,14.16
2019-02-26T20:14:48.822Z,14.27
2019-02-26T20:18:20.119Z,14.03
2019-02-26T20:21:37.109Z,13.86
2019-02-26T20:25:00.464Z,13.64
2019-02-26T20:28:26.496Z,13.34
2019-02-26T20:31:50.413Z,13.15
2019-02-26T20:35:15.958Z,13.20
2019-02-26T20:38:38.942Z,13.00
2019-02-26T20:42:05.093Z,12.88
2019-02-26T20:45:28.280Z,12.61
2019-02-26T20:48:51.789Z,12.46
2019-02-26T20:52:15.237Z,12.35
2019-02-26T20:55:39.636Z,12.36
2019-02-26T20:59:02.909Z,12.46
2019-02-26T21:02:26.242Z,12.12
2019-02-26T21:05:49.794Z,12.09
2019-02-26T21:09:13.520Z,12.08
2019-02-26T21:12:38.381Z,11.92
2019-02-26T21:16:02.257Z,11.90
2019-02-26T21:19:25.628Z,11.85
2019-02-26T21:22:49.787Z,11.71
2019-02-26T21:26:14.744Z,11.74
2019-02-26T21:29:38.864Z,11.41
2019-02-26T21:33:03.093Z,11.16
2019-02-26T21:36:28.005Z,11.41
2019-02-26T21:39:51.459Z,11.69
2019-02-26T21:43:14.640Z,11.22
2019-02-26T21:46:38.065Z,11.17
2019-02-26T21:50:01.770Z,11.11
2019-02-26T21:53:26.041Z,11.10
2019-02-26T21:56:49.512Z,11.19
2019-02-26T22:00:14.363Z,11.01
2019-02-26T22:03:37.806Z,10.94
2019-02-26T22:07:01.000Z,10.85
2019-02-26T22:10:24.179Z,10.60
2019-02-26T22:13:47.271Z,10.43
2019-02-26T22:17:10.416Z,10.26
2019-02-26T22:20:36.405Z,10.48
2019-02-26T22:23:58.709Z,10.52
2019-02-26T22:27:24.454Z,10.20
2019-02-26T22:30:47.604Z,10.21
2019-02-26T22:34:10.856Z,10.16
2019-02-26T22:37:34.027Z,10.19
2019-02-26T22:40:57.120Z,10.13
2019-02-26T22:44:21.589Z,9.89
2019-02-26T22:47:46.360Z,9.89
2019-02-26T22:51:09.488Z,9.68
2019-02-26T22:54:32.618Z,9.82
2019-02-26T22:57:55.896Z,9.73
2019-02-26T23:01:42.966Z,9.65
2019-02-26T23:05:06.701Z,9.66
2019-02-26T23:08:30.012Z,9.50
2019-02-26T23:11:53.462Z,9.37
2019-02-26T23:15:16.622Z,9.48
2019-02-26T23:18:40.378Z,9.36
2019-02-26T23:22:07.121Z,9.51
2019-02-26T23:25:30.651Z,9.56
2019-02-26T23:28:56.166Z,9.73
2019-02-26T23:32:21.010Z,9.41
2019-02-26T23:35:44.620Z,9.28
2019-02-26T23:39:11.315Z,9.42
2019-02-26T23:42:38.583Z,9.03
2019-02-26T23:46:01.534Z,9.44
2019-02-26T23:49:24.969Z,9.11
2019-02-26T23:52:48.385Z,9.09
2019-02-26T23:56:11.651Z,8.92
2019-02-26T23:59:37.703Z,8.83
